Time;durP1;ratioP1;P1;durP2;ratioP2;P2;SDS_P1;SDS_P2;PMS_P1;PMS_P2;Temp;Humidity;BMP_temperature;BMP_pressure;BME280_temperature;BME280_humidity;BME280_pressure;Samples;Min_cycle;Max_cycle;Signal;HPM_P1;HPM_P2
2022/02/24 00:01:23;;;;;;;13.02;8.25;;;;;;;5.89;100.00;100952.72;4995754;28;20093;-72
2022/02/24 00:04:07;;;;;;;16.00;8.60;;;;;;;5.98;100.00;100953.94;4994916;28;20089;-74
2022/02/24 00:06:51;;;;;;;17.88;7.68;;;;;;;5.96;100.00;100948.72;4981112;28;20421;-74
2022/02/24 00:09:35;;;;;;;16.40;7.93;;;;;;;6.05;100.00;100952.59;4995273;28;20053;-74
2022/02/24 00:12:19;;;;;;;12.88;7.70;;;;;;;5.95;100.00;100952.31;4994913;28;20199;-74
2022/02/24 00:15:07;;;;;;;14.23;6.93;;;;;;;6.07;100.00;100951.53;4994763;28;20049;-74
2022/02/24 00:17:51;;;;;;;11.20;7.72;;;;;;;6.13;100.00;100953.78;4994476;28;20473;-75
2022/02/24 00:20:35;;;;;;;15.40;8.20;;;;;;;6.20;100.00;100956.88;4995340;28;20108;-75
2022/02/24 00:23:19;;;;;;;12.55;7.43;;;;;;;6.25;100.00;100955.63;4980208;28;20532;-74
2022/02/24 00:26:03;;;;;;;;;;;;;;;6.32;100.00;100946.34;4995532;28;20100;-75
2022/02/24 00:28:47;;;;;;;18.20;7.90;;;;;;;6.34;100.00;100944.44;4995536;28;20400;-75
2022/02/24 00:31:31;;;;;;;;;;;;;;;6.42;100.00;100939.47;4994587;28;20188;-75
2022/02/24 00:34:15;;;;;;;16.60;8.98;;;;;;;6.48;100.00;100941.69;4994116;28;20016;-74
2022/02/24 00:37:00;;;;;;;18.48;8.88;;;;;;;6.59;100.00;100939.22;4993922;28;20104;-74
2022/02/24 00:39:44;;;;;;;16.15;10.13;;;;;;;6.64;100.00;100945.03;4994101;28;20073;-74
2022/02/24 00:42:28;;;;;;;20.08;9.88;;;;;;;6.68;100.00;100933.28;4994786;28;20184;-75
2022/02/24 00:45:12;;;;;;;15.68;8.85;;;;;;;6.76;100.00;100935.41;4993912;28;20049;-74
2022/02/24 00:47:56;;;;;;;20.67;9.85;;;;;;;6.79;100.00;100936.03;4995002;28;20049;-75
2022/02/24 00:50:40;;;;;;;;;;;;;;;6.83;100.00;100934.91;4995136;28;20128;-75
2022/02/24 00:53:24;;;;;;;19.40;10.73;;;;;;;6.85;100.00;100929.47;4993855;28;19920;-74
2022/02/24 00:56:09;;;;;;;15.18;9.65;;;;;;;6.90;100.00;100928.22;4993679;28;20103;-74
2022/02/24 00:58:53;;;;;;;18.40;9.60;;;;;;;6.83;100.00;100926.94;4980081;28;20159;-75
2022/02/24 01:01:36;;;;;;;23.98;9.90;;;;;;;6.78;100.00;100918.44;4993326;28;20045;-74
2022/02/24 01:04:20;;;;;;;;;;;;;;;6.79;100.00;100916.66;4993666;28;20089;-74
2022/02/24 01:07:04;;;;;;;15.60;9.27;;;;;;;6.71;100.00;100913.69;4994214;28;19960;-75
2022/02/24 01:09:48;;;;;;;15.90;9.15;;;;;;;6.69;100.00;100919.06;4994411;28;20457;-75
2022/02/24 01:12:32;;;;;;;18.30;9.68;;;;;;;6.65;100.00;100909.66;4993542;28;20523;-75
2022/02/24 01:15:16;;;;;;;14.18;9.95;;;;;;;6.62;100.00;100911.66;4979962;28;20073;-75
2022/02/24 01:18:00;;;;;;;15.20;9.65;;;;;;;6.55;100.00;100905.91;4994675;28;20057;-75
2022/02/24 01:20:44;;;;;;;14.88;9.20;;;;;;;6.57;100.00;100901.34;4994281;28;20519;-75
2022/02/24 01:23:28;;;;;;;13.65;9.63;;;;;;;6.50;100.00;100896.59;4993445;28;20116;-75
2022/02/24 01:26:12;;;;;;;17.80;9.38;;;;;;;6.46;100.00;100885.34;4993316;28;20044;-74
2022/02/24 01:28:56;;;;;;;14.25;9.63;;;;;;;6.46;100.00;100888.00;4994059;28;20268;-75
2022/02/24 01:31:40;;;;;;;14.10;8.27;;;;;;;6.47;100.00;100884.38;4993603;28;20046;-74
2022/02/24 01:34:27;;;;;;;16.05;9.40;;;;;;;6.40;100.00;100880.47;4994116;28;20411;-73
2022/02/24 01:37:11;;;;;;;13.45;9.13;;;;;;;6.46;100.00;100877.41;4994013;28;20061;-75
2022/02/24 01:39:54;;;;;;;14.65;9.80;;;;;;;6.54;100.00;100861.84;4992904;28;20468;-75
2022/02/24 01:42:38;;;;;;;14.98;8.65;;;;;;;6.53;100.00;100859.28;4994656;28;20049;-75
2022/02/24 01:45:22;;;;;;;;;;;;;;;6.61;100.00;100857.84;4993439;28;20041;-75
2022/02/24 01:48:06;;;;;;;14.15;7.90;;;;;;;6.58;100.00;100852.72;4993093;28;19921;-75
2022/02/24 01:50:50;;;;;;;13.93;7.57;;;;;;;6.61;100.00;100857.84;4994084;28;20264;-75
2022/02/24 01:53:35;;;;;;;16.50;7.63;;;;;;;6.51;100.00;100859.41;4993002;28;20045;-74
2022/02/24 01:56:19;;;;;;;15.60;6.78;;;;;;;6.52;100.00;100845.22;4992897;28;20057;-75
2022/02/24 01:59:04;;;;;;;11.50;7.25;;;;;;;6.61;100.00;100847.22;4992986;28;20054;-74
2022/02/24 02:01:48;;;;;;;12.48;6.88;;;;;;;6.46;100.00;100836.84;4992832;28;20041;-75
2022/02/24 02:04:32;;;;;;;14.18;7.15;;;;;;;6.48;100.00;100837.56;4993832;28;20053;-74
2022/02/24 02:07:17;;;;;;;16.90;7.85;;;;;;;6.48;100.00;100827.81;4992767;28;20057;-75
2022/02/24 02:10:01;;;;;;;10.55;6.82;;;;;;;6.59;100.00;100827.94;4993038;28;20502;-75
2022/02/24 02:12:48;;;;;;;;;;;;;;;6.60;100.00;100828.78;4994409;28;20156;-75
2022/02/24 02:15:32;;;;;;;13.70;6.72;;;;;;;6.54;100.00;100819.47;4993503;28;19921;-74
2022/02/24 02:18:17;;;;;;;12.60;7.03;;;;;;;6.50;100.00;100822.41;4997713;28;20049;-75
2022/02/24 02:21:02;;;;;;;10.45;6.07;;;;;;;6.48;100.00;100811.91;4996200;28;20080;-75
2022/02/24 02:23:46;;;;;;;12.15;6.38;;;;;;;6.53;100.00;100807.16;4996136;28;20109;-75
2022/02/24 02:26:31;;;;;;;9.15;6.18;;;;;;;6.58;100.00;100814.81;4996272;28;20045;-75
2022/02/24 02:29:16;;;;;;;11.30;6.60;;;;;;;6.62;100.00;100801.25;4996515;28;20096;-75
2022/02/24 02:32:00;;;;;;;12.30;6.35;;;;;;;6.62;100.00;100803.88;4997196;28;20513;-75
2022/02/24 02:34:44;;;;;;;14.90;6.80;;;;;;;6.56;100.00;100806.94;4996183;28;20049;-75
2022/02/24 02:37:28;;;;;;;13.15;6.65;;;;;;;6.53;100.00;100796.56;4996752;28;20061;-74
2022/02/24 02:40:12;;;;;;;11.52;6.40;;;;;;;6.61;100.00;100804.84;4997153;28;20176;-74
2022/02/24 02:42:56;;;;;;;11.63;6.28;;;;;;;6.59;100.00;100796.16;4995995;28;20410;-75
2022/02/24 02:45:40;;;;;;;10.35;6.43;;;;;;;6.62;100.00;100788.00;4996162;28;20049;-74
2022/02/24 02:48:23;;;;;;;13.98;6.47;;;;;;;6.61;100.00;100781.00;4996965;28;20049;-75
2022/02/24 02:51:07;;;;;;;15.32;7.40;;;;;;;6.59;100.00;100779.41;4995985;28;20045;-74
2022/02/24 02:53:51;;;;;;;;;;;;;;;6.63;100.00;100779.09;4997481;28;20112;-75
2022/02/24 02:56:35;;;;;;;11.82;5.93;;;;;;;6.57;100.00;100771.56;4996418;28;19997;-75
2022/02/24 02:59:19;;;;;;;11.80;6.70;;;;;;;6.62;100.00;100761.50;4981813;28;20180;-75
2022/02/24 03:02:03;;;;;;;10.88;7.20;;;;;;;6.58;100.00;100767.13;4981676;28;20557;-74
2022/02/24 03:04:50;;;;;;;9.63;5.72;;;;;;;6.60;100.00;100766.06;4981982;28;20521;-74
2022/02/24 03:07:33;;;;;;;18.58;8.95;;;;;;;6.59;100.00;100759.09;4995389;28;20049;-74
2022/02/24 03:10:17;;;;;;;;;;;;;;;6.61;100.00;100746.56;4996974;28;20057;-75
2022/02/24 03:13:02;;;;;;;14.85;8.20;;;;;;;6.62;100.00;100745.59;4995610;28;19921;-75
2022/02/24 03:15:46;;;;;;;13.60;6.38;;;;;;;6.68;100.00;100739.03;4995412;28;20181;-75
2022/02/24 03:18:30;;;;;;;14.35;6.85;;;;;;;6.68;100.00;100731.91;4981443;28;20100;-75
2022/02/24 03:21:14;;;;;;;13.23;7.70;;;;;;;6.60;100.00;100734.28;5009245;28;20073;-75
2022/02/24 03:23:58;;;;;;;14.75;6.80;;;;;;;6.67;100.00;100735.53;4995223;28;20476;-75
2022/02/24 03:26:42;;;;;;;15.32;8.15;;;;;;;6.57;100.00;100729.19;4996113;28;20049;-75
2022/02/24 03:29:26;;;;;;;12.43;7.95;;;;;;;6.46;100.00;100720.31;4995223;28;20057;-74
2022/02/24 03:32:10;;;;;;;12.30;7.75;;;;;;;6.42;100.00;100722.31;4994908;28;20510;-74
2022/02/24 03:34:54;;;;;;;13.85;6.88;;;;;;;6.38;100.00;100715.53;4994951;28;20061;-75
2022/02/24 03:37:38;;;;;;;17.65;8.63;;;;;;;6.29;100.00;100717.97;4980947;28;20060;-74
2022/02/24 03:40:22;;;;;;;13.50;7.68;;;;;;;6.24;100.00;100720.94;4994743;28;20069;-74
2022/02/24 03:43:06;;;;;;;15.73;7.78;;;;;;;6.26;100.00;100715.56;4981238;28;20052;-74
2022/02/24 03:45:50;;;;;;;12.65;8.65;;;;;;;6.17;100.00;100716.19;4995900;28;20104;-75
2022/02/24 03:48:34;;;;;;;10.05;7.78;;;;;;;6.08;100.00;100720.31;4995978;28;20136;-74
2022/02/24 03:51:18;;;;;;;14.90;9.38;;;;;;;6.10;100.00;100706.97;4995971;28;20061;-75
2022/02/24 03:54:02;;;;;;;11.63;8.90;;;;;;;6.11;100.00;100711.31;4995662;28;20057;-75
2022/02/24 03:56:46;;;;;;;17.20;9.73;;;;;;;6.18;100.00;100709.94;4995537;28;20100;-75
2022/02/24 03:59:30;;;;;;;;;;;;;;;6.18;100.00;100705.47;4994825;28;20134;-74
2022/02/24 04:02:14;;;;;;;22.53;9.07;;;;;;;6.24;100.00;100694.47;4995460;28;19920;-75
2022/02/24 04:04:58;;;;;;;17.30;9.55;;;;;;;6.26;100.00;100689.91;4994782;28;20121;-75
2022/02/24 04:07:42;;;;;;;16.48;9.10;;;;;;;6.29;100.00;100686.22;4994938;28;20157;-75
2022/02/24 04:10:26;;;;;;;14.98;9.27;;;;;;;6.30;100.00;100683.47;4995093;28;20045;-74
2022/02/24 04:13:10;;;;;;;14.15;9.20;;;;;;;6.32;100.00;100689.50;4995659;28;20084;-74
2022/02/24 04:15:54;;;;;;;19.23;10.27;;;;;;;6.38;100.00;100681.09;4995168;28;20073;-75
2022/02/24 04:18:38;;;;;;;8.38;6.43;;;;;;;6.43;100.00;100675.47;4980297;28;20057;-75
2022/02/24 04:21:22;;;;;;;;;;;;;;;6.33;100.00;100667.34;4995645;28;20104;-75
2022/02/24 04:24:06;;;;;;;16.43;8.07;;;;;;;6.38;100.00;100667.84;4980488;28;19949;-74
2022/02/24 04:26:50;;;;;;;15.15;7.85;;;;;;;6.40;100.00;100663.31;4994596;28;20335;-73
2022/02/24 04:29:34;;;;;;;13.25;7.63;;;;;;;6.49;100.00;100662.69;4994586;28;20044;-74
2022/02/24 04:32:18;;;;;;;13.82;6.57;;;;;;;6.28;100.00;100661.50;4994617;28;20053;-74
2022/02/24 04:35:02;;;;;;;11.23;6.30;;;;;;;6.34;100.00;100647.84;4994848;28;20516;-74
2022/02/24 04:37:46;;;;;;;14.73;8.82;;;;;;;6.37;100.00;100646.81;4993572;28;20080;-74
2022/02/24 04:40:30;;;;;;;11.48;8.82;;;;;;;6.34;100.00;100642.56;4993535;28;20077;-74
2022/02/24 04:43:14;;;;;;;16.67;9.07;;;;;;;6.31;100.00;100642.78;4994299;28;20057;-75
2022/02/24 04:45:59;;;;;;;12.93;8.68;;;;;;;6.35;100.00;100635.47;4994481;28;20052;-75
2022/02/24 04:48:43;;;;;;;17.95;8.98;;;;;;;6.41;100.00;100635.88;4993354;28;20116;-74
2022/02/24 04:51:27;;;;;;;13.07;7.53;;;;;;;6.45;100.00;100632.06;4994982;28;20073;-75
2022/02/24 04:54:11;;;;;;;;;;;;;;;6.47;100.00;100624.84;4993984;28;20116;-75
2022/02/24 04:56:55;;;;;;;10.80;6.00;;;;;;;6.47;100.00;100627.47;4994298;28;19920;-75
2022/02/24 04:59:39;;;;;;;;;;;;;;;6.43;100.00;100615.44;4994607;28;20342;-75
2022/02/24 05:02:23;;;;;;;13.25;8.73;;;;;;;6.37;100.00;100626.44;4993630;28;20071;-75
2022/02/24 05:05:07;;;;;;;18.60;9.85;;;;;;;6.30;100.00;100616.41;4993254;28;20097;-75
2022/02/24 05:07:51;;;;;;;14.77;8.77;;;;;;;6.24;100.00;100608.91;4993338;28;20053;-75
2022/02/24 05:10:35;;;;;;;11.70;8.93;;;;;;;6.21;100.00;100615.28;4994566;28;20442;-75
2022/02/24 05:13:20;;;;;;;13.75;8.32;;;;;;;6.23;100.00;100604.56;4993353;28;20512;-74
2022/02/24 05:16:04;;;;;;;12.43;7.97;;;;;;;6.25;100.00;100595.56;4994024;28;20097;-75
2022/02/24 05:18:47;;;;;;;16.35;8.63;;;;;;;6.14;100.00;100598.13;4994229;28;20044;-75
2022/02/24 05:21:31;;;;;;;;;;;;;;;6.10;100.00;100596.66;4994961;28;20050;-74
2022/02/24 05:24:16;;;;;;;16.67;8.37;;;;;;;6.14;100.00;100581.41;4993120;28;19924;-75
2022/02/24 05:27:00;;;;;;;14.52;8.80;;;;;;;6.11;100.00;100582.47;4993733;28;20104;-74
2022/02/24 05:29:44;;;;;;;13.82;8.38;;;;;;;6.03;100.00;100590.09;4993033;28;20045;-75
2022/02/24 05:32:28;;;;;;;;;;;;;;;5.85;100.00;100575.50;4993615;28;20064;-75
2022/02/24 05:35:12;;;;;;;16.97;9.70;;;;;;;5.74;100.00;100585.94;4993639;28;19960;-75
2022/02/24 05:37:56;;;;;;;;;;;;;;;5.74;100.00;100579.84;4993366;28;20073;-75
2022/02/24 05:40:40;;;;;;;10.32;7.28;;;;;;;5.68;100.00;100583.75;4992955;28;19924;-75
2022/02/24 05:43:25;;;;;;;12.23;7.18;;;;;;;5.62;100.00;100584.16;4993795;28;20096;-75
2022/02/24 05:46:09;;;;;;;13.70;8.15;;;;;;;5.61;100.00;100598.34;4979467;28;20053;-75
2022/02/24 05:48:53;;;;;;;;;;;;;;;5.46;100.00;100594.06;4993348;28;20146;-75
2022/02/24 05:51:37;;;;;;;12.32;7.93;;;;;;;5.42;100.00;100589.97;4995030;28;19924;-74
2022/02/24 05:54:21;;;;;;;18.20;9.80;;;;;;;5.32;100.00;100596.81;4996759;28;20045;-74
2022/02/24 05:57:05;;;;;;;19.70;8.82;;;;;;;5.22;100.00;100597.56;4996581;28;20466;-75
2022/02/24 05:59:49;;;;;;;;;;;;;;;5.19;100.00;100595.09;4998146;28;20042;-75
2022/02/24 06:02:33;;;;;;;15.30;8.73;;;;;;;5.19;100.00;100585.38;4997498;28;19963;-75
2022/02/24 06:05:17;;;;;;;17.73;9.75;;;;;;;5.18;100.00;100582.84;4997676;28;20294;-75
2022/02/24 06:08:01;;;;;;;11.82;7.53;;;;;;;5.23;100.00;100581.56;4983023;28;20058;-73
2022/02/24 06:10:45;;;;;;;15.18;8.40;;;;;;;5.27;100.00;100585.72;4997379;28;20122;-75
2022/02/24 06:13:29;;;;;;;;;;;;;;;5.32;100.00;100583.59;4997906;28;20069;-75
2022/02/24 06:16:13;;;;;;;17.67;10.03;;;;;;;5.29;100.00;100583.81;4996489;28;19920;-75
2022/02/24 06:18:56;;;;;;;16.27;8.35;;;;;;;5.31;100.00;100573.97;4996289;28;20120;-74
2022/02/24 06:21:40;;;;;;;;;;;;;;;5.31;100.00;100573.97;4997755;28;20104;-75
2022/02/24 06:24:25;;;;;;;16.10;8.80;;;;;;;5.25;100.00;100569.09;4997428;28;20037;-75
2022/02/24 06:27:09;;;;;;;18.90;9.63;;;;;;;5.16;100.00;100564.47;4997203;28;20268;-75
2022/02/24 06:29:53;;;;;;;15.07;9.13;;;;;;;5.16;100.00;100558.31;4996216;28;20537;-75
2022/02/24 06:32:37;;;;;;;12.10;8.27;;;;;;;5.16;100.00;100548.59;4995954;28;20582;-75
2022/02/24 06:35:21;;;;;;;11.55;8.05;;;;;;;5.12;100.00;100546.28;4996085;28;20144;-75
2022/02/24 06:38:05;;;;;;;;;;;;;;;5.12;100.00;100546.28;4996379;28;20100;-75
2022/02/24 06:40:49;;;;;;;14.33;9.60;;;;;;;5.12;100.00;100541.81;4996784;28;19924;-75
2022/02/24 06:43:33;;;;;;;;;;;;;;;5.11;100.00;100542.75;4982728;28;20046;-75
2022/02/24 06:46:18;;;;;;;15.45;10.60;;;;;;;5.02;100.00;100540.75;4995768;28;19920;-75
2022/02/24 06:49:02;;;;;;;16.23;9.63;;;;;;;5.04;100.00;100538.84;4995654;28;20057;-75
2022/02/24 06:51:46;;;;;;;17.90;9.50;;;;;;;5.05;100.00;100535.25;4995976;28;20053;-74
2022/02/24 06:54:30;;;;;;;16.85;10.27;;;;;;;5.06;100.00;100534.31;4981829;28;20068;-75
2022/02/24 06:57:14;;;;;;;15.18;9.00;;;;;;;5.12;100.00;100536.53;4996581;28;20117;-75
2022/02/24 06:59:57;;;;;;;;;;;;;;;5.14;100.00;100534.63;4995981;28;20096;-74
2022/02/24 07:02:42;;;;;;;12.17;8.10;;;;;;;5.21;100.00;100529.75;4995439;28;19920;-75
2022/02/24 07:05:26;;;;;;;12.60;8.63;;;;;;;5.27;100.00;100530.22;4995671;28;20521;-75
2022/02/24 07:08:10;;;;;;;15.25;8.43;;;;;;;5.34;100.00;100526.19;4996516;28;20096;-75
2022/02/24 07:10:54;;;;;;;15.73;8.88;;;;;;;5.43;100.00;100520.25;4996508;28;20398;-74
2022/02/24 07:13:38;;;;;;;13.77;8.07;;;;;;;5.52;100.00;100524.09;4997254;28;20099;-73
2022/02/24 07:16:22;;;;;;;13.35;8.40;;;;;;;5.52;100.00;100518.81;4996526;28;20101;-75
2022/02/24 07:19:06;;;;;;;15.18;9.13;;;;;;;5.51;100.00;100509.16;4996690;28;20474;-74
2022/02/24 07:21:50;;;;;;;15.45;9.50;;;;;;;5.51;100.00;100511.78;4995803;28;20509;-74
2022/02/24 07:24:34;;;;;;;15.13;8.48;;;;;;;5.55;100.00;100514.13;4996478;28;20045;-75
2022/02/24 07:27:18;;;;;;;14.40;8.30;;;;;;;5.64;100.00;100513.47;4996349;28;20048;-75
2022/02/24 07:30:04;;;;;;;16.10;7.65;;;;;;;5.75;100.00;100505.63;4996366;28;20100;-75
2022/02/24 07:32:48;;;;;;;10.35;7.30;;;;;;;5.74;100.00;100503.94;4995289;28;20089;-74
2022/02/24 07:35:32;;;;;;;12.90;8.00;;;;;;;5.89;100.00;100502.91;4995563;28;20049;-75
2022/02/24 07:38:16;;;;;;;12.85;6.97;;;;;;;5.95;100.00;100491.88;4995327;28;20068;-75
2022/02/24 07:41:00;;;;;;;9.88;6.32;;;;;;;6.00;100.00;100489.75;4994883;28;20085;-74
2022/02/24 07:43:44;;;;;;;11.00;7.32;;;;;;;6.11;100.00;100492.47;4996082;28;20525;-75
2022/02/24 07:46:28;;;;;;;9.02;6.93;;;;;;;6.16;100.00;100486.84;4994935;28;20053;-75
2022/02/24 07:49:12;;;;;;;;;;;;;;;6.25;100.00;100488.84;4981867;28;20565;-74
2022/02/24 07:51:55;;;;;;;9.87;6.00;;;;;;;6.36;100.00;100480.94;4996191;28;19975;-75
2022/02/24 07:54:39;;;;;;;11.82;7.35;;;;;;;6.36;100.00;100487.06;4994882;28;20076;-75
2022/02/24 07:57:23;;;;;;;14.35;7.60;;;;;;;6.41;100.00;100484.94;4995776;28;20057;-75
2022/02/24 08:00:09;;;;;;;;;;;;;;;6.50;100.00;100483.41;4995315;28;20141;-74
2022/02/24 08:02:55;;;;;;;11.25;6.75;;;;;;;6.60;100.00;100479.97;4994771;28;19920;-74
2022/02/24 08:05:39;;;;;;;12.13;6.68;;;;;;;6.76;100.00;100475.22;4995511;28;20509;-74
2022/02/24 08:08:23;;;;;;;12.60;7.10;;;;;;;6.90;100.00;100466.22;4981683;28;20054;-74
2022/02/24 08:11:07;;;;;;;8.45;6.57;;;;;;;6.88;100.00;100482.22;4996185;28;20041;-74
2022/02/24 08:13:51;;;;;;;10.63;5.72;;;;;;;7.04;100.00;100466.00;4995342;28;20112;-74
2022/02/24 08:16:35;;;;;;;8.73;6.25;;;;;;;7.20;100.00;100469.19;4995281;28;20064;-74
2022/02/24 08:19:18;;;;;;;9.77;6.50;;;;;;;7.28;100.00;100457.00;4995509;28;20065;-75
2022/02/24 08:22:03;;;;;;;10.30;6.70;;;;;;;7.40;100.00;100448.09;4995146;28;20106;-73
2022/02/24 08:24:47;;;;;;;7.50;5.88;;;;;;;7.51;100.00;100448.09;4994115;28;20057;-74
2022/02/24 08:27:31;;;;;;;13.43;6.20;;;;;;;7.61;100.00;100447.25;4995313;28;20545;-74
2022/02/24 08:30:17;;;;;;;9.48;6.50;;;;;;;7.76;100.00;100450.50;4994055;28;20133;-74
2022/02/24 08:33:02;;;;;;;12.82;7.57;;;;;;;8.01;100.00;100442.25;4994171;28;20052;-75
2022/02/24 08:35:46;;;;;;;13.82;7.32;;;;;;;8.01;100.00;100439.59;4994484;28;20462;-74
2022/02/24 08:38:30;;;;;;;8.88;6.55;;;;;;;8.15;100.00;100434.03;4994190;28;20517;-74
2022/02/24 08:41:14;;;;;;;8.05;5.97;;;;;;;8.34;100.00;100431.59;4993560;28;20565;-74
2022/02/24 08:43:58;;;;;;;11.38;6.47;;;;;;;8.45;100.00;100434.22;4994462;28;20096;-75
2022/02/24 08:46:42;;;;;;;;;;;;;;;8.59;100.00;100433.91;4994943;28;20116;-75
2022/02/24 08:49:26;;;;;;;10.10;5.13;;;;;;;8.75;100.00;100421.84;4979826;28;19961;-75
2022/02/24 08:52:11;;;;;;;9.93;5.63;;;;;;;9.04;100.00;100414.06;4994976;28;20117;-74
2022/02/24 08:54:55;;;;;;;10.05;4.22;;;;;;;9.27;100.00;100415.63;4993611;28;20080;-75
2022/02/24 08:57:40;;;;;;;5.90;4.40;;;;;;;9.42;100.00;100416.94;4993374;28;20048;-75
2022/02/24 09:00:24;;;;;;;7.40;4.15;;;;;;;9.60;100.00;100410.00;4993022;28;20088;-74
2022/02/24 09:03:09;;;;;;;7.57;3.88;;;;;;;9.73;100.00;100424.78;4993369;28;20136;-74
2022/02/24 09:05:53;;;;;;;6.00;3.58;;;;;;;9.89;100.00;100402.97;4979538;28;20057;-75
2022/02/24 09:08:37;;;;;;;7.47;4.10;;;;;;;10.13;100.00;100406.09;4993817;28;20192;-74
2022/02/24 09:11:24;;;;;;;5.20;3.53;;;;;;;10.17;100.00;100404.84;4994113;28;20040;-74
2022/02/24 09:14:08;;;;;;;7.28;3.60;;;;;;;10.53;100.00;100400.53;4993346;28;20111;-75
2022/02/24 09:16:52;;;;;;;7.28;3.05;;;;;;;10.87;100.00;100391.06;4993997;28;20065;-74
2022/02/24 09:19:39;;;;;;;4.80;3.47;;;;;;;11.08;100.00;100389.06;4992606;28;20053;-74
2022/02/24 09:22:23;;;;;;;5.72;3.38;;;;;;;11.30;100.00;100385.22;4993932;28;20057;-75
2022/02/24 09:25:09;;;;;;;4.82;3.30;;;;;;;11.63;100.00;100403.38;4992847;28;20129;-74
2022/02/24 09:27:53;;;;;;;6.15;3.25;;;;;;;11.41;100.00;100393.03;4993428;28;20189;-75
2022/02/24 09:30:37;;;;;;;3.50;2.90;;;;;;;11.12;100.00;100390.47;4992971;28;20156;-75
2022/02/24 09:33:21;;;;;;;5.45;3.33;;;;;;;11.26;100.00;100382.00;4992673;28;20044;-74
2022/02/24 09:36:05;;;;;;;4.70;3.53;;;;;;;11.14;100.00;100380.50;4992622;28;20101;-73
2022/02/24 09:38:49;;;;;;;6.05;2.85;;;;;;;11.56;100.00;100376.38;4992723;28;20108;-75
2022/02/24 09:41:32;;;;;;;3.67;2.60;;;;;;;11.98;100.00;100369.56;4992493;28;20422;-75
2022/02/24 09:44:16;;;;;;;6.32;2.97;;;;;;;12.11;97.73;100367.41;4992541;28;20161;-75
2022/02/24 09:47:01;;;;;;;4.00;2.50;;;;;;;12.86;89.13;100349.81;4993284;28;20049;-75
2022/02/24 09:49:45;;;;;;;3.30;2.60;;;;;;;13.05;83.82;100356.84;4978792;28;20044;-74
2022/02/24 09:52:29;;;;;;;5.20;2.65;;;;;;;12.42;89.62;100360.69;4992535;28;20138;-75
2022/02/24 09:55:13;;;;;;;4.25;2.63;;;;;;;12.50;92.80;100346.53;4992437;28;20501;-75
2022/02/24 09:57:57;;;;;;;4.70;2.75;;;;;;;12.13;93.17;100346.69;4978481;28;20050;-74
2022/02/24 10:00:41;;;;;;;4.18;2.42;;;;;;;11.84;95.51;100351.41;4992614;28;20069;-75
2022/02/24 10:03:35;;;;;;;6.05;2.40;;;;;;;12.25;93.10;100342.81;4993465;28;20181;-75
2022/02/24 10:06:32;;;;;;;3.58;2.30;;;;;;;12.84;88.63;100334.94;4992212;28;20096;-75
2022/02/24 10:09:29;;;;;;;6.13;2.35;;;;;;;13.31;82.33;100334.41;4992484;28;20053;-75
2022/02/24 10:12:16;;;;;;;5.90;2.58;;;;;;;12.92;84.59;100329.63;4993218;28;20509;-74
2022/02/24 10:15:12;;;;;;;4.82;2.28;;;;;;;12.05;92.33;100338.59;4993193;28;20052;-72
2022/02/24 10:18:06;;;;;;;3.90;2.22;;;;;;;12.03;91.93;100343.25;4992388;28;20077;-74
2022/02/24 10:20:57;;;;;;;7.50;2.47;;;;;;;12.02;95.68;100346.91;4992378;28;20057;-74
2022/02/24 10:23:41;;;;;;;3.67;2.22;;;;;;;-139.48;100.00;61774.03;4993352;28;20045;-74
2022/02/24 10:26:25;;;;;;;3.55;2.15;;;;;;;12.11;93.16;100321.13;4978368;28;20069;-74
2022/02/24 10:29:08;;;;;;;3.83;2.60;;;;;;;12.29;91.93;100322.78;4992587;28;20570;-74
2022/02/24 10:31:52;;;;;;;6.10;2.55;;;;;;;11.95;92.53;100327.13;4992107;28;20049;-74
2022/02/24 10:34:36;;;;;;;6.15;2.38;;;;;;;12.16;92.42;100326.81;4992199;28;20137;-74
2022/02/24 10:37:28;;;;;;;4.30;2.20;;;;;;;12.11;93.26;100321.13;4979695;28;20173;-74
2022/02/24 10:40:16;;;;;;;6.30;2.40;;;;;;;12.41;91.34;100310.03;4995763;28;20049;-74
2022/02/24 10:43:27;;;;;;;3.40;2.53;;;;;;;12.09;86.91;100315.09;4996067;28;20053;-74
2022/02/24 10:46:20;;;;;;;5.53;2.70;;;;;;;12.09;84.22;100305.22;4995603;28;20044;-74
2022/02/24 10:49:04;;;;;;;3.83;2.50;;;;;;;12.07;84.74;100312.56;4996405;28;20064;-73
2022/02/24 10:51:48;;;;;;;4.63;2.80;;;;;;;12.15;83.52;100293.94;4996649;28;20057;-73
2022/02/24 10:54:32;;;;;;;4.00;2.65;;;;;;;12.23;81.98;100299.34;4995740;28;20053;-75
2022/02/24 10:57:20;;;;;;;7.82;2.55;;;;;;;12.47;81.50;100288.84;4996158;28;20053;-74
2022/02/24 11:00:05;;;;;;;5.88;2.88;;;;;;;12.38;80.05;100299.66;5033213;23;20048;-75
2022/02/24 11:02:49;;;;;;;6.10;2.75;;;;;;;12.39;77.51;100286.09;5014794;28;20525;-73
2022/02/24 11:05:34;;;;;;;5.13;2.80;;;;;;;12.97;75.57;100284.53;5014573;28;20497;-75
2022/02/24 11:08:18;;;;;;;5.78;2.67;;;;;;;13.14;75.34;100278.28;5014730;28;20049;-75
2022/02/24 11:11:03;;;;;;;4.65;2.50;;;;;;;13.32;71.94;100262.94;5008643;28;20061;-75
2022/02/24 11:13:49;;;;;;;7.35;2.97;;;;;;;12.91;77.08;100267.25;4995900;28;20053;-76
2022/02/24 11:16:33;;;;;;;5.13;2.97;;;;;;;12.66;75.97;100253.88;4994651;28;20057;-74
2022/02/24 11:19:18;;;;;;;4.90;3.20;;;;;;;12.59;76.47;100255.50;4995956;28;20050;-75
2022/02/24 11:22:04;;;;;;;6.13;3.13;;;;;;;12.69;76.47;100253.56;4994708;28;20074;-73
2022/02/24 11:24:47;;;;;;;7.63;3.05;;;;;;;12.33;75.92;100260.00;4994784;28;20151;-75
2022/02/24 11:27:35;;;;;;;3.83;2.15;;;;;;;12.54;76.19;100260.50;4994462;28;20131;-73
2022/02/24 11:30:29;;;;;;;6.10;2.85;;;;;;;12.46;78.34;100249.75;5008563;28;20510;-74
2022/02/24 11:33:15;;;;;;;5.03;2.70;;;;;;;12.57;74.05;100262.84;4994745;28;20514;-74
2022/02/24 11:36:12;;;;;;;5.30;2.60;;;;;;;13.49;71.14;100252.16;4994568;28;20077;-75
2022/02/24 11:39:11;;;;;;;6.20;2.80;;;;;;;13.69;66.00;100247.31;4995533;28;20401;-75
2022/02/24 11:41:56;;;;;;;4.40;2.35;;;;;;;14.07;62.59;100236.81;4994343;28;20140;-75
2022/02/24 11:44:41;;;;;;;5.95;2.67;;;;;;;13.80;63.36;100233.63;4994140;28;20107;-74
2022/02/24 11:47:25;;;;;;;5.28;2.50;;;;;;;13.61;63.01;100231.22;4995784;28;20080;-75
2022/02/24 11:50:10;;;;;;;3.53;2.25;;;;;;;14.36;63.21;100220.22;4994686;28;20160;-75
2022/02/24 11:52:54;;;;;;;4.70;2.55;;;;;;;14.01;61.97;100216.06;4995374;28;20591;-74
2022/02/24 11:55:39;;;;;;;4.30;2.50;;;;;;;13.63;63.76;100213.16;4994231;28;20081;-74
2022/02/24 11:58:42;;;;;;;5.00;2.58;;;;;;;13.31;63.69;100211.25;4995377;28;20501;-74
2022/02/24 12:01:43;;;;;;;4.97;2.47;;;;;;;13.47;64.98;100211.28;4994780;28;20053;-75
2022/02/24 12:04:29;;;;;;;5.82;2.20;;;;;;;13.65;64.89;100208.50;4994994;28;20407;-74
2022/02/24 12:07:19;;;;;;;5.70;2.63;;;;;;;12.98;65.60;100213.97;4994074;28;20049;-76
2022/02/24 12:10:09;;;;;;;5.80;2.70;;;;;;;13.34;65.18;100205.56;4994100;28;20556;-75
2022/02/24 12:12:53;;;;;;;5.85;2.58;;;;;;;13.31;65.11;100207.72;4993706;28;20471;-75
2022/02/24 12:15:37;;;;;;;6.35;2.80;;;;;;;13.17;65.70;100213.72;4993937;28;20057;-72
2022/02/24 12:18:21;;;;;;;4.97;2.50;;;;;;;13.17;65.84;100201.16;5007638;28;20449;-73
2022/02/24 12:21:34;;;;;;;3.50;2.28;;;;;;;13.34;65.33;100186.00;4993579;28;20133;-71
2022/02/24 12:24:23;;;;;;;3.80;2.13;;;;;;;13.29;64.75;100189.16;5007280;28;20050;-74
2022/02/24 12:27:26;;;;;;;6.18;2.60;;;;;;;13.10;66.29;100185.91;4994471;28;20052;-75
2022/02/24 12:30:25;;;;;;;4.93;2.10;;;;;;;13.23;67.64;100170.22;4994456;28;20052;-75
2022/02/24 12:33:10;;;;;;;3.55;2.10;;;;;;;13.21;65.88;100177.56;4993546;28;20085;-73
2022/02/24 12:35:55;;;;;;;5.03;2.67;;;;;;;13.01;65.77;100184.19;4994671;28;20049;-73
2022/02/24 12:38:41;;;;;;;4.03;2.05;;;;;;;13.08;67.26;100161.16;4994454;28;20251;-75
2022/02/24 12:41:26;;;;;;;4.00;2.28;;;;;;;13.06;66.44;100163.16;4979671;28;20069;-72
2022/02/24 12:44:23;;;;;;;3.10;2.10;;;;;;;12.99;66.32;100162.13;4993219;28;20148;-75
2022/02/24 12:47:07;;;;;;;3.40;2.00;;;;;;;;;;5006945;28;20049;-75
2022/02/24 12:49:57;;;;;;;5.90;2.38;;;;;;;12.90;67.51;100168.41;4994130;28;20100;-71